Дата Время Давление Темп. Влажн. Скор.ветра Напр.ветра Макс.ветер Осадки/час Осадки
18.06.24 01:00 739.3 18.9 94.8 1.6 175 3 0 0
18.06.24 00:00 739.5 19.1 94.7 0.9 114 2.5 0 18.2
17.06.24 23:00 739.7 19.5 94.5 1.1 113 2.9 0.4 18.2
17.06.24 22:00 739.9 19.2 94.6 0.7 114 2.8 0.4 17.8
17.06.24 21:00 740 18.8 93.8 0.7 81 2.6 0 17.4
17.06.24 20:00 740 19.6 92 0.8 352 3.2 0 17.4
17.06.24 19:00 739.9 20.7 91.7 0.8 65 3.5 0.6 17.4
17.06.24 18:00 739.7 22.5 85.7 0.6 66 2.6 0 16.8
17.06.24 17:00 740.7 19.9 90.2 1.5 78 5.2 10 16.8
17.06.24 16:00 739.1 27 66.4 0.6 0 1.3 0 6.8
17.06.24 15:00 738.6 26.5 69.2 0.6 117 2.9 0 6.8
17.06.24 14:00 740.3 22.3 81.5 0.9 117 2.9 0 6.8
17.06.24 13:00 740.8 21.6 81.9 1.1 105 4.8 0 6.8
17.06.24 12:00 741.2 21.2 82 1.9 111 5.3 0 6.8
17.06.24 11:00 740.7 21.1 81.9 1.1 104 5.1 0 6.8
17.06.24 10:00 741.1 20.8 82.2 1 113 5.4 0 6.8
17.06.24 09:00 741.4 20.2 84 1.5 107 5.8 0 6.8
17.06.24 08:00 741.5 20.4 83.2 1.8 107 5.1 0 6.8
17.06.24 07:00 741.7 19 87.6 0.8 69 4.1 0 6.8
17.06.24 06:00 742.2 17.9 90.4 1.5 52 5.9 0 6.8
17.06.24 05:00 742.4 17.4 93.2 1.7 48 3.5 0 6.8
17.06.24 04:00 742.8 17.2 93.9 1.1 48 3.2 0.8 6.8
17.06.24 03:00 742.7 17.5 92.5 0.9 45 2.6 0.2 6
17.06.24 02:00 743.3 17.9 90.7 0.7 33 3.2 5.8 5.8